createdAt,value
2023-03-27T00:02:14.453Z,7.15
2023-03-27T00:05:01.041Z,7.57
2023-03-27T00:07:54.961Z,8.88
2023-03-27T00:10:40.187Z,8.27
2023-03-27T00:13:25.187Z,7.47
2023-03-27T00:16:11.047Z,7.75
2023-03-27T00:18:56.230Z,7.63
2023-03-27T00:21:41.196Z,7.13
2023-03-27T00:24:26.555Z,8.77
2023-03-27T00:27:11.441Z,7.03
2023-03-27T00:29:57.107Z,6.82
2023-03-27T00:32:42.680Z,7.43
2023-03-27T00:35:28.951Z,6.43
2023-03-27T00:38:14.774Z,6.93
2023-03-27T00:41:00.140Z,6.20
2023-03-27T00:43:45.321Z,8.00
2023-03-27T00:46:39.598Z,7.20
2023-03-27T00:49:29.023Z,7.55
2023-03-27T00:52:16.221Z,8.15
2023-03-27T00:55:06.720Z,10.27
2023-03-27T00:57:56.893Z,6.97
2023-03-27T01:00:41.517Z,6.43
2023-03-27T01:03:32.584Z,7.93
2023-03-27T01:09:04.368Z,10.27
2023-03-27T01:12:08.529Z,11.20
2023-03-27T01:15:10.425Z,10.88
2023-03-27T01:18:19.580Z,7.30
2023-03-27T01:21:48.807Z,7.93
2023-03-27T01:25:21.170Z,9.00
2023-03-27T01:31:10.431Z,7.72
2023-03-27T01:34:25.831Z,8.35
2023-03-27T01:37:28.578Z,8.73
2023-03-27T01:40:26.355Z,7.68
2023-03-27T01:43:17.471Z,7.65
2023-03-27T01:49:08.091Z,7.57
2023-03-27T01:52:00.981Z,11.05
2023-03-27T01:54:54.314Z,10.52
2023-03-27T01:57:49.379Z,8.88
2023-03-27T02:01:02.427Z,7.38
2023-03-27T02:03:51.775Z,9.25
2023-03-27T02:06:41.943Z,8.75
2023-03-27T02:09:35.176Z,9.73
2023-03-27T02:12:26.652Z,10.30
2023-03-27T02:15:23.848Z,10.63
2023-03-27T02:18:18.745Z,9.82
2023-03-27T02:21:05.595Z,8.75
2023-03-27T02:23:51.076Z,8.77
2023-03-27T02:26:35.929Z,7.93
2023-03-27T02:29:41.036Z,7.53
2023-03-27T02:32:57.986Z,7.03
2023-03-27T02:36:09.952Z,8.93
2023-03-27T02:39:13.935Z,6.72
2023-03-27T02:42:31.045Z,8.25
2023-03-27T02:45:21.181Z,7.85
2023-03-27T02:48:09.373Z,7.68
2023-03-27T02:51:06.855Z,7.97
2023-03-27T02:54:00.527Z,8.77
2023-03-27T02:56:59.594Z,8.82
2023-03-27T03:00:00.015Z,9.90
2023-03-27T03:02:48.204Z,9.45
2023-03-27T03:05:36.363Z,11.35
2023-03-27T03:08:21.618Z,9.68
2023-03-27T03:11:10.284Z,8.90
2023-03-27T03:13:55.598Z,8.25
2023-03-27T03:16:40.512Z,8.15
2023-03-27T03:19:25.251Z,7.47
2023-03-27T03:22:10.795Z,8.35
2023-03-27T03:24:56.988Z,8.35
2023-03-27T03:27:45.443Z,9.80
2023-03-27T03:30:30.621Z,9.27
2023-03-27T03:33:21.593Z,9.77
2023-03-27T03:36:07.035Z,16.88
2023-03-27T03:38:54.718Z,23.85
2023-03-27T03:41:39.758Z,16.65
2023-03-27T03:44:24.677Z,11.10
2023-03-27T03:47:09.584Z,14.40
2023-03-27T03:49:54.526Z,17.35
2023-03-27T03:52:39.692Z,20.58
2023-03-27T03:55:25.109Z,19.27
2023-03-27T03:58:10.264Z,14.02
2023-03-27T04:00:56.036Z,11.57
2023-03-27T04:03:56.065Z,15.65
2023-03-27T04:06:45.570Z,16.20
2023-03-27T04:09:30.745Z,14.15
2023-03-27T04:12:35.572Z,17.08
2023-03-27T04:15:25.000Z,19.73
2023-03-27T04:18:31.891Z,21.40
2023-03-27T04:21:18.610Z,24.33
2023-03-27T04:24:03.806Z,26.58
2023-03-27T04:27:03.084Z,26.55
2023-03-27T04:30:15.107Z,33.42
2023-03-27T04:33:19.081Z,25.00
2023-03-27T04:36:23.508Z,13.70
2023-03-27T04:39:22.789Z,16.35
2023-03-27T04:42:12.162Z,13.65
2023-03-27T04:44:57.188Z,13.02
2023-03-27T04:47:42.350Z,11.82
2023-03-27T04:50:27.340Z,11.63
2023-03-27T04:53:12.384Z,8.98
2023-03-27T04:56:03.267Z,8.98
2023-03-27T04:58:51.010Z,9.85
2023-03-27T05:01:38.359Z,6.15
2023-03-27T05:04:40.280Z,9.45
2023-03-27T05:07:29.935Z,8.48
2023-03-27T05:10:16.789Z,7.55
2023-03-27T05:13:02.113Z,7.18
2023-03-27T05:15:47.278Z,9.10
2023-03-27T05:18:37.066Z,9.20
2023-03-27T05:21:26.808Z,8.43
2023-03-27T05:24:17.299Z,7.85
2023-03-27T05:30:08.525Z,8.60
2023-03-27T05:32:53.894Z,8.40
2023-03-27T05:35:58.814Z,14.85
2023-03-27T05:39:14.368Z,12.68
2023-03-27T05:42:08.603Z,14.73
2023-03-27T05:44:53.586Z,11.10
2023-03-27T05:47:57.118Z,13.68
2023-03-27T05:54:18.239Z,10.85
2023-03-27T05:57:48.465Z,11.73
2023-03-27T06:00:38.901Z,12.48
2023-03-27T06:04:42.134Z,12.98
2023-03-27T06:07:40.889Z,11.70
2023-03-27T06:14:03.595Z,11.50
2023-03-27T06:17:17.005Z,10.60
2023-03-27T06:21:41.004Z,8.95
2023-03-27T06:24:42.210Z,12.00
2023-03-27T06:27:34.150Z,11.38
2023-03-27T06:31:07.245Z,10.73
2023-03-27T06:38:00.621Z,8.65
2023-03-27T06:40:59.425Z,11.32
2023-03-27T06:44:01.775Z,10.20
2023-03-27T06:46:52.239Z,6.85
2023-03-27T06:49:48.985Z,8.02
2023-03-27T06:59:32.588Z,6.05
2023-03-27T07:02:31.013Z,5.25
2023-03-27T07:06:28.346Z,5.85
2023-03-27T07:09:44.866Z,6.05
2023-03-27T07:12:56.277Z,5.25
2023-03-27T07:16:41.701Z,4.40
2023-03-27T07:19:35.647Z,6.03
2023-03-27T07:22:37.871Z,5.88
2023-03-27T07:26:19.555Z,5.30
2023-03-27T07:29:41.802Z,4.63
2023-03-27T07:33:35.097Z,6.88
2023-03-27T07:36:23.560Z,4.75
2023-03-27T07:39:57.016Z,6.65
2023-03-27T07:42:48.713Z,6.43
2023-03-27T07:45:41.787Z,6.05
2023-03-27T07:48:27.377Z,5.40
2023-03-27T07:55:22.844Z,6.07
2023-03-27T07:58:21.145Z,5.22
2023-03-27T08:01:13.230Z,5.78
2023-03-27T08:04:26.671Z,4.53
2023-03-27T08:07:30.550Z,5.40
2023-03-27T08:11:01.897Z,4.57
2023-03-27T08:13:57.034Z,6.05
2023-03-27T08:16:42.001Z,3.97
2023-03-27T08:20:30.704Z,4.60
2023-03-27T08:23:11.552Z,6.10
2023-03-27T08:26:17.668Z,5.60
2023-03-27T08:29:08.519Z,4.13
2023-03-27T08:31:54.300Z,5.13
2023-03-27T08:34:49.120Z,5.22
2023-03-27T08:37:41.424Z,4.50
2023-03-27T08:40:53.045Z,5.50
2023-03-27T08:44:23.855Z,3.80
2023-03-27T08:47:55.295Z,5.28
2023-03-27T08:54:18.740Z,4.28
2023-03-27T08:57:17.401Z,3.55
2023-03-27T09:00:09.342Z,5.38
2023-03-27T09:03:04.287Z,4.60
2023-03-27T09:06:05.020Z,4.95
2023-03-27T09:09:02.753Z,4.80
2023-03-27T09:12:11.194Z,3.47
2023-03-27T09:15:21.859Z,2.75
2023-03-27T09:18:20.795Z,3.55
2023-03-27T09:21:38.820Z,3.42
2023-03-27T09:24:33.222Z,2.80
2023-03-27T09:27:39.248Z,4.75
2023-03-27T09:30:45.333Z,2.95
2023-03-27T09:33:41.725Z,4.28
2023-03-27T09:36:28.567Z,3.90
2023-03-27T09:39:21.919Z,4.25
2023-03-27T09:42:38.746Z,3.85
2023-03-27T09:45:27.357Z,4.20
2023-03-27T09:48:35.422Z,4.38
2023-03-27T09:51:38.835Z,3.38
2023-03-27T09:54:50.950Z,3.78
2023-03-27T09:58:35.610Z,3.60
2023-03-27T10:01:36.407Z,4.40
2023-03-27T10:05:16.030Z,3.22
2023-03-27T10:08:26.647Z,3.20
2023-03-27T10:12:56.884Z,5.05
2023-03-27T10:16:05.510Z,2.63
2023-03-27T10:19:22.206Z,2.90
2023-03-27T10:22:18.776Z,4.03
2023-03-27T10:25:16.022Z,2.80
2023-03-27T10:28:22.744Z,3.67
2023-03-27T10:31:50.032Z,3.25
2023-03-27T10:35:04.846Z,4.07
2023-03-27T10:38:01.261Z,3.75
2023-03-27T10:41:28.144Z,3.13
2023-03-27T10:44:20.207Z,7.07
2023-03-27T10:47:22.610Z,4.38
2023-03-27T10:51:05.015Z,5.18
2023-03-27T10:54:55.635Z,3.03
2023-03-27T10:57:45.337Z,3.22
2023-03-27T11:00:40.548Z,2.30
2023-03-27T11:06:30.099Z,3.90
2023-03-27T11:09:24.779Z,2.78
2023-03-27T11:12:37.971Z,3.65
2023-03-27T11:15:43.596Z,2.20
2023-03-27T11:18:57.467Z,2.88
2023-03-27T11:21:51.639Z,2.55
2023-03-27T11:24:56.362Z,4.30
2023-03-27T11:28:01.136Z,5.15
2023-03-27T11:30:49.968Z,4.65
2023-03-27T11:33:47.333Z,2.67
2023-03-27T11:37:21.627Z,4.57
2023-03-27T11:46:07.790Z,2.47
2023-03-27T11:49:18.247Z,3.60
2023-03-27T11:52:48.719Z,3.58
2023-03-27T11:59:47.142Z,2.47
2023-03-27T12:06:52.850Z,4.45
2023-03-27T12:10:14.450Z,2.15
2023-03-27T12:13:41.336Z,5.78
2023-03-27T12:16:43.614Z,5.63
2023-03-27T12:19:42.512Z,3.45
2023-03-27T12:23:28.071Z,5.53
2023-03-27T12:27:14.347Z,2.85
2023-03-27T12:30:35.268Z,3.67
2023-03-27T12:33:26.961Z,2.80
2023-03-27T12:36:17.866Z,3.67
2023-03-27T12:39:17.570Z,5.55
2023-03-27T12:42:13.469Z,6.20
2023-03-27T12:45:17.511Z,6.00
2023-03-27T12:48:10.884Z,6.32
2023-03-27T12:51:02.518Z,5.80
2023-03-27T12:53:55.465Z,5.57
2023-03-27T12:56:42.021Z,4.47
2023-03-27T12:59:28.413Z,6.57
2023-03-27T13:02:47.149Z,7.30
2023-03-27T13:05:32.084Z,4.70
2023-03-27T13:08:55.956Z,3.65
2023-03-27T13:12:16.006Z,4.60
2023-03-27T13:15:14.178Z,4.82
2023-03-27T13:18:14.323Z,6.20
2023-03-27T13:21:14.278Z,4.18
2023-03-27T13:24:20.645Z,7.95
2023-03-27T13:27:23.990Z,8.15
2023-03-27T13:30:42.271Z,6.78
2023-03-27T13:33:45.517Z,5.25
2023-03-27T13:36:42.380Z,2.88
2023-03-27T13:39:39.770Z,3.50
2023-03-27T13:42:45.993Z,2.80
2023-03-27T13:45:41.501Z,4.03
2023-03-27T13:48:59.133Z,9.57
2023-03-27T13:52:09.345Z,2.55
2023-03-27T13:55:19.372Z,4.53
2023-03-27T13:58:34.870Z,2.00
2023-03-27T14:01:35.459Z,2.92
2023-03-27T14:04:45.282Z,3.47
2023-03-27T14:07:43.458Z,2.95
2023-03-27T14:11:11.067Z,5.13
2023-03-27T14:14:15.244Z,4.43
2023-03-27T14:17:20.441Z,3.22
2023-03-27T14:20:40.805Z,3.63
2023-03-27T14:23:31.842Z,3.17
2023-03-27T14:26:41.180Z,1.70
2023-03-27T14:29:31.833Z,4.38
2023-03-27T14:32:17.509Z,5.32
2023-03-27T14:35:32.836Z,9.32
2023-03-27T14:38:33.576Z,5.18
2023-03-27T14:41:21.094Z,4.88
2023-03-27T14:44:12.765Z,3.35
2023-03-27T14:47:07.662Z,6.35
2023-03-27T14:49:58.282Z,4.13
2023-03-27T14:52:57.421Z,5.63
2023-03-27T14:56:03.707Z,4.22
2023-03-27T14:59:17.904Z,4.25
2023-03-27T15:02:14.145Z,4.75
2023-03-27T15:05:14.463Z,4.85
2023-03-27T15:08:12.250Z,6.50
2023-03-27T15:11:23.255Z,9.85
2023-03-27T15:14:32.261Z,8.85
2023-03-27T15:17:19.530Z,6.43
2023-03-27T15:20:09.535Z,8.02
2023-03-27T15:23:26.507Z,8.38
2023-03-27T15:26:26.708Z,8.85
2023-03-27T15:29:33.445Z,7.03
2023-03-27T15:32:21.370Z,6.95
2023-03-27T15:35:07.835Z,8.77
2023-03-27T15:37:52.972Z,15.63
2023-03-27T15:40:42.652Z,16.17
2023-03-27T15:43:29.150Z,19.88
2023-03-27T15:46:19.287Z,18.80
2023-03-27T15:49:23.401Z,20.90
2023-03-27T15:52:32.215Z,15.40
2023-03-27T15:55:55.549Z,6.78
2023-03-27T15:58:51.367Z,5.53
2023-03-27T16:01:39.000Z,4.38
2023-03-27T16:04:27.304Z,4.40
2023-03-27T16:07:46.652Z,5.22
2023-03-27T16:10:33.273Z,8.23
2023-03-27T16:13:32.701Z,7.82
2023-03-27T16:16:26.545Z,6.32
2023-03-27T16:19:12.704Z,6.85
2023-03-27T16:21:58.155Z,9.63
2023-03-27T16:24:43.014Z,10.07
2023-03-27T16:27:35.033Z,8.73
2023-03-27T16:30:28.023Z,6.22
2023-03-27T16:33:18.543Z,6.50
2023-03-27T16:36:04.040Z,7.90
2023-03-27T16:38:49.300Z,8.57
2023-03-27T16:41:34.169Z,7.45
2023-03-27T16:47:03.117Z,11.20
2023-03-27T16:49:59.311Z,24.27
2023-03-27T16:52:53.267Z,20.90
2023-03-27T16:55:38.086Z,16.33
2023-03-27T16:58:22.955Z,14.40
2023-03-27T17:01:08.904Z,13.15
2023-03-27T17:03:53.898Z,17.67
2023-03-27T17:06:39.675Z,18.50
2023-03-27T17:09:24.206Z,13.35
2023-03-27T17:12:10.683Z,15.90
2023-03-27T17:14:56.323Z,10.90
2023-03-27T17:17:41.448Z,12.68
2023-03-27T17:20:26.276Z,13.70
2023-03-27T17:23:11.503Z,18.02
2023-03-27T17:25:59.558Z,19.42
2023-03-27T17:28:44.400Z,16.83
2023-03-27T17:31:30.893Z,27.35
2023-03-27T17:34:18.825Z,25.50
2023-03-27T17:37:03.732Z,26.92
2023-03-27T17:39:49.379Z,20.48
2023-03-27T17:42:35.166Z,19.33
2023-03-27T17:45:20.714Z,19.38
2023-03-27T17:48:06.407Z,19.08
2023-03-27T17:51:05.034Z,21.95
2023-03-27T17:53:53.224Z,28.52
2023-03-27T17:56:40.040Z,27.75
2023-03-27T17:59:25.697Z,29.60
2023-03-27T18:02:16.298Z,24.58
2023-03-27T18:05:01.080Z,26.42
2023-03-27T18:07:46.428Z,24.67
2023-03-27T18:10:33.494Z,29.20
2023-03-27T18:13:20.009Z,25.67
2023-03-27T18:16:09.872Z,20.90
2023-03-27T18:18:56.944Z,14.60
2023-03-27T18:21:41.573Z,16.30
2023-03-27T18:24:26.456Z,15.38
2023-03-27T18:27:11.546Z,11.90
2023-03-27T18:29:56.434Z,16.80
2023-03-27T18:32:43.929Z,20.15
2023-03-27T18:35:30.556Z,31.67
2023-03-27T18:38:17.256Z,49.60
2023-03-27T18:41:02.295Z,59.33
2023-03-27T18:43:47.296Z,48.53
2023-03-27T18:46:32.221Z,40.03
2023-03-27T18:49:24.181Z,35.63
2023-03-27T18:52:11.410Z,47.83
2023-03-27T18:54:56.022Z,33.67
2023-03-27T18:57:41.149Z,21.88
2023-03-27T19:00:26.080Z,19.30
2023-03-27T19:03:17.257Z,16.15
2023-03-27T19:06:05.374Z,13.43
2023-03-27T19:08:51.026Z,13.15
2023-03-27T19:11:36.476Z,10.40
2023-03-27T19:14:24.197Z,11.50
2023-03-27T19:17:32.038Z,10.02
2023-03-27T19:20:32.135Z,10.30
2023-03-27T19:23:31.175Z,11.65
2023-03-27T19:26:18.604Z,13.00
2023-03-27T19:29:04.384Z,13.95
2023-03-27T19:31:49.363Z,12.98
2023-03-27T19:34:42.332Z,10.70
2023-03-27T19:37:29.146Z,10.13
2023-03-27T19:40:14.704Z,11.93
2023-03-27T19:42:59.615Z,14.20
2023-03-27T19:46:08.074Z,11.80
2023-03-27T19:48:59.623Z,11.15
2023-03-27T19:51:55.075Z,12.30
2023-03-27T19:54:40.029Z,14.05
2023-03-27T19:57:24.786Z,13.82
2023-03-27T20:00:12.264Z,13.15
2023-03-27T20:03:01.167Z,12.98
2023-03-27T20:05:49.031Z,13.77
2023-03-27T20:08:37.224Z,13.00
2023-03-27T20:11:22.455Z,15.88
2023-03-27T20:14:10.341Z,13.80
2023-03-27T20:16:55.279Z,17.33
2023-03-27T20:19:45.565Z,14.02
2023-03-27T20:22:35.010Z,14.63
2023-03-27T20:25:31.768Z,14.65
2023-03-27T20:28:16.945Z,15.38
2023-03-27T20:31:05.965Z,24.35
2023-03-27T20:33:52.579Z,21.63
2023-03-27T20:36:42.771Z,20.67
2023-03-27T20:39:46.271Z,17.95
2023-03-27T20:42:38.155Z,24.30
2023-03-27T20:45:26.230Z,20.55
2023-03-27T20:48:15.617Z,18.65
2023-03-27T20:51:04.657Z,18.90
2023-03-27T20:53:54.149Z,19.33
2023-03-27T20:56:38.988Z,17.23
2023-03-27T20:59:23.856Z,17.20
2023-03-27T21:02:15.718Z,17.42
2023-03-27T21:05:02.037Z,16.15
2023-03-27T21:07:47.449Z,18.48
2023-03-27T21:10:32.745Z,16.30
2023-03-27T21:13:17.533Z,16.27
2023-03-27T21:16:03.944Z,17.77
2023-03-27T21:18:48.817Z,18.08
2023-03-27T21:21:33.897Z,15.20
2023-03-27T21:24:19.903Z,21.75
2023-03-27T21:27:05.864Z,18.20
2023-03-27T21:29:50.608Z,19.23
2023-03-27T21:32:35.615Z,17.50
2023-03-27T21:35:20.576Z,17.58
2023-03-27T21:38:05.433Z,17.15
2023-03-27T21:40:50.326Z,17.02
2023-03-27T21:43:35.349Z,19.73
2023-03-27T21:46:20.604Z,21.20
2023-03-27T21:49:05.377Z,20.60
2023-03-27T21:51:50.686Z,19.67
2023-03-27T21:54:35.372Z,21.88
2023-03-27T21:57:20.388Z,24.88
2023-03-27T22:00:06.382Z,22.27
2023-03-27T22:02:57.426Z,22.52
2023-03-27T22:05:42.225Z,22.98
2023-03-27T22:08:27.022Z,23.27
2023-03-27T22:11:12.133Z,25.35
2023-03-27T22:13:58.545Z,24.33
2023-03-27T22:16:43.420Z,23.52
2023-03-27T22:19:28.451Z,25.33
2023-03-27T22:22:13.712Z,26.42
2023-03-27T22:24:58.429Z,27.10
2023-03-27T22:27:43.733Z,24.38
2023-03-27T22:30:28.528Z,21.08
2023-03-27T22:33:13.404Z,23.38
2023-03-27T22:35:58.843Z,23.52
2023-03-27T22:38:45.783Z,22.60
2023-03-27T22:41:30.814Z,24.50
2023-03-27T22:44:15.677Z,21.15
2023-03-27T22:47:00.768Z,24.67
2023-03-27T22:49:45.615Z,21.55
2023-03-27T22:52:30.900Z,23.20
2023-03-27T22:55:15.733Z,23.98
2023-03-27T22:58:00.595Z,23.30
2023-03-27T23:00:46.113Z,24.13
2023-03-27T23:03:31.675Z,21.80
2023-03-27T23:06:18.959Z,29.13
2023-03-27T23:09:03.919Z,28.17
2023-03-27T23:11:48.762Z,22.35
2023-03-27T23:14:33.491Z,21.15
2023-03-27T23:17:18.450Z,22.83
2023-03-27T23:20:03.686Z,19.60
2023-03-27T23:22:48.376Z,21.40
2023-03-27T23:25:33.319Z,22.45
2023-03-27T23:28:18.138Z,20.20
2023-03-27T23:31:05.651Z,19.15
2023-03-27T23:33:50.951Z,17.45
2023-03-27T23:36:35.924Z,19.30
2023-03-27T23:39:20.605Z,20.30
2023-03-27T23:42:05.701Z,17.80
2023-03-27T23:44:50.584Z,18.40
2023-03-27T23:47:35.621Z,17.88
2023-03-27T23:50:20.371Z,18.33
2023-03-27T23:53:04.933Z,19.00
2023-03-27T23:55:49.730Z,17.80
2023-03-27T23:58:36.470Z,22.10
